createdAt,value
2023-04-20T00:00:11.567Z,13.02
2023-04-20T00:02:43.160Z,14.23
2023-04-20T00:05:12.694Z,15.50
2023-04-20T00:07:41.835Z,14.43
2023-04-20T00:10:11.012Z,14.13
2023-04-20T00:12:39.277Z,14.98
2023-04-20T00:15:09.879Z,13.90
2023-04-20T00:17:39.581Z,14.77
2023-04-20T00:20:09.957Z,13.48
2023-04-20T00:22:38.332Z,13.40
2023-04-20T00:25:07.547Z,13.25
2023-04-20T00:27:35.730Z,13.02
2023-04-20T00:30:04.193Z,13.43
2023-04-20T00:32:34.161Z,13.50
2023-04-20T00:35:02.497Z,14.07
2023-04-20T00:37:31.104Z,14.52
2023-04-20T00:39:59.404Z,14.07
2023-04-20T00:42:27.734Z,13.85
2023-04-20T00:44:56.186Z,12.45
2023-04-20T00:47:24.572Z,13.07
2023-04-20T00:49:55.630Z,13.00
2023-04-20T00:52:24.217Z,12.32
2023-04-20T00:54:52.553Z,14.68
2023-04-20T00:57:23.947Z,13.68
2023-04-20T00:59:52.748Z,14.10
2023-04-20T01:02:23.829Z,13.18
2023-04-20T01:04:52.244Z,12.95
2023-04-20T01:07:21.838Z,15.73
2023-04-20T01:09:51.530Z,13.30
2023-04-20T01:12:19.788Z,13.80
2023-04-20T01:14:48.050Z,13.23
2023-04-20T01:17:17.599Z,13.82
2023-04-20T01:19:47.173Z,14.10
2023-04-20T01:22:18.629Z,15.65
2023-04-20T01:24:47.117Z,14.82
2023-04-20T01:27:17.051Z,15.10
2023-04-20T01:29:45.736Z,13.85
2023-04-20T01:32:14.118Z,16.13
2023-04-20T01:34:43.312Z,14.48
2023-04-20T01:37:11.662Z,13.00
2023-04-20T01:39:42.215Z,13.30
2023-04-20T01:42:10.871Z,13.90
2023-04-20T01:44:40.262Z,13.95
2023-04-20T01:47:08.576Z,13.73
2023-04-20T01:49:36.874Z,14.15
2023-04-20T01:52:05.289Z,15.02
2023-04-20T01:54:33.514Z,14.25
2023-04-20T01:57:04.613Z,13.10
2023-04-20T01:59:32.831Z,13.68
2023-04-20T02:02:03.317Z,14.68
2023-04-20T02:04:34.306Z,15.45
2023-04-20T02:07:03.024Z,13.73
2023-04-20T02:09:31.283Z,13.70
2023-04-20T02:11:59.521Z,13.68
2023-04-20T02:14:29.113Z,13.05
2023-04-20T02:16:57.383Z,14.40
2023-04-20T02:19:25.562Z,13.75
2023-04-20T02:21:53.774Z,14.00
2023-04-20T02:24:22.093Z,13.27
2023-04-20T02:26:50.292Z,13.68
2023-04-20T02:29:18.623Z,13.95
2023-04-20T02:31:48.393Z,12.60
2023-04-20T02:34:17.383Z,13.55
2023-04-20T02:36:45.572Z,13.00
2023-04-20T02:39:14.286Z,13.88
2023-04-20T02:41:42.514Z,14.05
2023-04-20T02:44:10.876Z,14.20
2023-04-20T02:46:39.147Z,13.20
2023-04-20T02:49:08.951Z,14.00
2023-04-20T02:51:41.855Z,14.50
2023-04-20T02:54:10.103Z,13.82
2023-04-20T02:56:38.636Z,13.88
2023-04-20T02:59:10.410Z,14.00
2023-04-20T03:01:53.869Z,14.82
2023-04-20T03:04:27.853Z,13.30
2023-04-20T03:07:02.510Z,13.80
2023-04-20T03:09:34.048Z,14.52
2023-04-20T03:12:08.325Z,13.55
2023-04-20T03:14:59.840Z,12.90
2023-04-20T03:17:51.072Z,13.57
2023-04-20T03:20:21.452Z,13.38
2023-04-20T03:22:49.788Z,14.13
2023-04-20T03:25:18.955Z,12.88
2023-04-20T03:27:54.810Z,13.48
2023-04-20T03:30:23.531Z,14.45
2023-04-20T03:32:58.179Z,13.27
2023-04-20T03:35:28.214Z,13.32
2023-04-20T03:37:56.350Z,13.85
2023-04-20T03:40:25.485Z,12.77
2023-04-20T03:42:54.717Z,14.38
2023-04-20T03:45:23.079Z,14.00
2023-04-20T03:47:51.268Z,14.27
2023-04-20T03:50:19.562Z,13.55
2023-04-20T03:52:49.070Z,14.35
2023-04-20T03:55:17.635Z,14.75
2023-04-20T03:57:51.742Z,14.05
2023-04-20T04:00:20.217Z,13.80
2023-04-20T04:02:48.513Z,13.25
2023-04-20T04:05:24.276Z,12.95
2023-04-20T04:07:54.092Z,13.30
2023-04-20T04:10:22.333Z,14.60
2023-04-20T04:12:50.957Z,13.23
2023-04-20T04:15:20.387Z,13.23
2023-04-20T04:17:57.202Z,13.85
2023-04-20T04:20:26.025Z,13.60
2023-04-20T04:22:56.124Z,13.80
2023-04-20T04:26:03.096Z,14.00
2023-04-20T04:28:33.711Z,14.25
2023-04-20T04:31:21.570Z,13.95
2023-04-20T04:33:49.936Z,15.30
2023-04-20T04:36:36.763Z,13.82
2023-04-20T04:39:06.909Z,15.05
2023-04-20T04:41:36.889Z,14.32
2023-04-20T04:44:18.238Z,16.42
2023-04-20T04:46:47.595Z,15.48
2023-04-20T04:49:16.226Z,15.60
2023-04-20T04:51:44.679Z,15.73
2023-04-20T04:54:14.583Z,14.10
2023-04-20T04:56:42.796Z,15.30
2023-04-20T04:59:11.079Z,14.63
2023-04-20T05:01:39.360Z,15.10
2023-04-20T05:04:07.708Z,14.43
2023-04-20T05:06:35.978Z,15.63
2023-04-20T05:09:04.429Z,15.57
2023-04-20T05:11:34.516Z,15.50
2023-04-20T05:14:03.612Z,15.50
2023-04-20T05:16:31.913Z,14.55
2023-04-20T05:19:00.155Z,15.60
2023-04-20T05:21:28.435Z,15.90
2023-04-20T05:23:56.657Z,16.63
2023-04-20T05:26:24.803Z,18.20
2023-04-20T05:28:54.291Z,18.10
2023-04-20T05:31:22.642Z,19.02
2023-04-20T05:33:50.903Z,20.08
2023-04-20T05:36:19.237Z,18.75
2023-04-20T05:38:47.831Z,15.25
2023-04-20T05:41:16.017Z,17.63
2023-04-20T05:43:44.581Z,17.70
2023-04-20T05:46:14.206Z,16.35
2023-04-20T05:48:42.434Z,17.90
2023-04-20T05:51:10.661Z,16.52
2023-04-20T05:53:39.020Z,17.55
2023-04-20T05:56:08.302Z,17.00
2023-04-20T05:58:37.625Z,18.60
2023-04-20T06:01:06.328Z,16.60
2023-04-20T06:03:36.435Z,18.83
2023-04-20T06:06:05.094Z,17.27
2023-04-20T06:08:33.285Z,16.83
2023-04-20T06:11:01.489Z,18.40
2023-04-20T06:13:29.717Z,19.50
2023-04-20T06:15:58.021Z,16.05
2023-04-20T06:18:26.266Z,18.08
2023-04-20T06:20:55.886Z,17.52
2023-04-20T06:23:24.618Z,19.30
2023-04-20T06:25:52.783Z,19.90
2023-04-20T06:28:20.891Z,19.40
2023-04-20T06:30:49.196Z,17.90
2023-04-20T06:33:18.088Z,20.10
2023-04-20T06:35:46.443Z,18.77
2023-04-20T06:38:15.926Z,21.63
2023-04-20T06:40:44.182Z,22.92
2023-04-20T06:43:12.429Z,22.10
2023-04-20T06:45:41.585Z,25.52
2023-04-20T06:48:23.890Z,24.80
2023-04-20T06:50:58.588Z,23.95
2023-04-20T06:53:28.215Z,23.13
2023-04-20T06:55:56.470Z,21.35
2023-04-20T06:58:24.643Z,20.67
2023-04-20T07:00:52.878Z,20.20
2023-04-20T07:03:21.344Z,19.80
2023-04-20T07:05:49.685Z,21.05
2023-04-20T07:08:18.219Z,20.38
2023-04-20T07:10:47.934Z,20.10
2023-04-20T07:13:16.213Z,20.75
2023-04-20T07:15:46.264Z,21.05
2023-04-20T07:18:14.421Z,20.25
2023-04-20T07:20:42.737Z,19.27
2023-04-20T07:23:11.077Z,21.35
2023-04-20T07:25:39.301Z,21.95
2023-04-20T07:28:08.903Z,22.85
2023-04-20T07:30:37.163Z,22.10
2023-04-20T07:33:05.876Z,21.52
2023-04-20T07:35:34.184Z,22.13
2023-04-20T07:38:02.319Z,20.40
2023-04-20T07:40:30.659Z,21.45
2023-04-20T07:42:58.824Z,19.52
2023-04-20T07:45:28.706Z,17.85
2023-04-20T07:47:57.464Z,19.63
2023-04-20T07:50:26.079Z,16.67
2023-04-20T07:52:54.310Z,17.33
2023-04-20T07:55:22.680Z,15.70
2023-04-20T07:57:51.223Z,13.30
2023-04-20T08:00:20.547Z,15.60
2023-04-20T08:02:50.419Z,13.95
2023-04-20T08:05:18.956Z,14.60
2023-04-20T08:07:47.342Z,14.73
2023-04-20T08:10:15.662Z,16.02
2023-04-20T08:12:44.028Z,14.80
2023-04-20T08:15:12.943Z,13.68
2023-04-20T08:17:41.957Z,16.15
2023-04-20T08:20:12.506Z,14.00
2023-04-20T08:22:41.096Z,14.95
2023-04-20T08:25:09.882Z,15.65
2023-04-20T08:27:38.504Z,16.60
2023-04-20T08:30:08.754Z,14.45
2023-04-20T08:32:37.097Z,16.13
2023-04-20T08:35:05.725Z,13.88
2023-04-20T08:37:37.551Z,15.13
2023-04-20T08:40:07.139Z,15.77
2023-04-20T08:42:35.479Z,15.93
2023-04-20T08:45:03.653Z,16.25
2023-04-20T08:47:35.552Z,15.75
2023-04-20T08:50:05.567Z,14.38
2023-04-20T08:52:38.723Z,15.60
2023-04-20T08:55:08.860Z,15.35
2023-04-20T08:57:37.196Z,14.85
2023-04-20T09:00:12.205Z,15.50
2023-04-20T09:02:51.136Z,15.90
2023-04-20T09:05:27.964Z,15.18
2023-04-20T09:07:59.193Z,16.40
2023-04-20T09:10:39.531Z,16.90
2023-04-20T09:13:07.751Z,17.13
2023-04-20T09:15:36.152Z,14.65
2023-04-20T09:18:15.392Z,15.35
2023-04-20T09:20:43.623Z,16.10
2023-04-20T09:23:13.666Z,15.57
2023-04-20T09:25:43.636Z,13.98
2023-04-20T09:28:11.859Z,15.07
2023-04-20T09:30:41.166Z,15.75
2023-04-20T09:33:11.092Z,13.27
2023-04-20T09:35:40.531Z,15.95
2023-04-20T09:38:09.088Z,13.40
2023-04-20T09:40:39.386Z,13.87
2023-04-20T09:43:15.183Z,14.70
2023-04-20T09:45:44.960Z,15.33
2023-04-20T09:48:15.464Z,12.73
2023-04-20T09:50:49.763Z,13.53
2023-04-20T09:53:20.103Z,13.20
2023-04-20T09:55:51.310Z,13.43
2023-04-20T09:58:20.405Z,12.97
2023-04-20T10:00:48.817Z,13.03
2023-04-20T10:03:18.357Z,13.90
2023-04-20T10:05:46.757Z,13.47
2023-04-20T10:08:15.195Z,12.90
2023-04-20T10:10:49.846Z,13.73
2023-04-20T10:13:19.621Z,16.03
2023-04-20T10:15:48.408Z,13.63
2023-04-20T10:18:18.875Z,12.70
2023-04-20T10:20:47.708Z,14.30
2023-04-20T10:23:18.673Z,14.57
2023-04-20T10:25:58.435Z,14.57
2023-04-20T10:28:26.824Z,13.10
2023-04-20T10:30:55.169Z,13.30
2023-04-20T10:33:23.911Z,11.97
2023-04-20T10:35:55.013Z,12.57
2023-04-20T10:38:34.572Z,12.83
2023-04-20T10:41:10.770Z,10.50
2023-04-20T10:43:42.293Z,12.17
2023-04-20T10:46:18.226Z,11.70
2023-04-20T10:48:53.917Z,11.20
2023-04-20T10:51:22.752Z,11.37
2023-04-20T10:54:02.116Z,12.53
2023-04-20T10:56:39.854Z,11.20
2023-04-20T10:59:09.077Z,11.33
2023-04-20T11:01:37.508Z,11.67
2023-04-20T11:04:07.177Z,10.67
2023-04-20T11:06:35.942Z,11.50
2023-04-20T11:09:04.479Z,12.07
2023-04-20T11:11:32.645Z,12.20
2023-04-20T11:14:09.536Z,10.33
2023-04-20T11:16:49.629Z,10.27
2023-04-20T11:19:25.844Z,11.53
2023-04-20T11:21:54.307Z,11.07
2023-04-20T11:24:23.775Z,9.87
2023-04-20T11:26:54.488Z,10.73
2023-04-20T11:29:34.796Z,10.73
2023-04-20T11:32:06.540Z,10.20
2023-04-20T11:34:36.260Z,10.37
2023-04-20T11:37:08.095Z,10.00
2023-04-20T11:39:36.366Z,9.87
2023-04-20T11:42:05.323Z,9.73
2023-04-20T11:44:36.848Z,10.90
2023-04-20T11:47:06.076Z,10.80
2023-04-20T11:49:34.794Z,10.20
2023-04-20T11:52:03.501Z,9.53
2023-04-20T11:54:34.075Z,10.50
2023-04-20T11:57:02.675Z,10.60
2023-04-20T11:59:30.879Z,10.50
2023-04-20T12:02:02.852Z,10.07
2023-04-20T12:04:31.393Z,10.77
2023-04-20T12:07:00.242Z,11.17
2023-04-20T12:09:28.461Z,11.87
2023-04-20T12:11:57.725Z,11.10
2023-04-20T12:14:26.560Z,11.30
2023-04-20T12:16:56.153Z,10.87
2023-04-20T12:19:26.986Z,12.13
2023-04-20T12:21:55.211Z,10.27
2023-04-20T12:24:23.527Z,11.60
2023-04-20T12:26:51.735Z,10.20
2023-04-20T12:29:20.272Z,9.30
2023-04-20T12:31:48.827Z,9.50
2023-04-20T12:34:17.409Z,10.30
2023-04-20T12:36:47.225Z,10.77
2023-04-20T12:39:15.492Z,11.77
2023-04-20T12:41:43.772Z,11.17
2023-04-20T12:44:13.266Z,10.40
2023-04-20T12:46:41.926Z,9.70
2023-04-20T12:49:10.623Z,8.80
2023-04-20T12:51:38.943Z,9.20
2023-04-20T12:54:08.631Z,8.27
2023-04-20T12:56:37.433Z,8.57
2023-04-20T12:59:05.568Z,8.33
2023-04-20T13:01:33.906Z,9.00
2023-04-20T13:04:02.331Z,8.70
2023-04-20T13:06:32.716Z,7.50
2023-04-20T13:09:01.690Z,9.67
2023-04-20T13:11:31.623Z,9.00
2023-04-20T13:14:00.771Z,10.60
2023-04-20T13:16:29.331Z,11.00
2023-04-20T13:18:58.054Z,9.50
2023-04-20T13:21:26.327Z,10.20
2023-04-20T13:23:55.512Z,10.40
2023-04-20T13:26:25.442Z,9.77
2023-04-20T13:28:57.578Z,10.10
2023-04-20T13:31:26.024Z,8.43
2023-04-20T13:33:54.776Z,8.90
2023-04-20T13:36:24.702Z,9.30
2023-04-20T13:38:53.790Z,8.97
2023-04-20T13:41:22.172Z,8.30
2023-04-20T13:43:50.806Z,9.37
2023-04-20T13:46:21.129Z,8.40
2023-04-20T13:48:49.469Z,8.67
2023-04-20T13:51:17.685Z,9.20
2023-04-20T13:53:48.021Z,10.33
2023-04-20T13:56:16.429Z,9.40
2023-04-20T13:58:44.689Z,9.30
2023-04-20T14:01:14.415Z,9.77
2023-04-20T14:03:44.865Z,9.43
2023-04-20T14:06:13.297Z,8.60
2023-04-20T14:08:41.502Z,8.13
2023-04-20T14:11:09.658Z,8.40
2023-04-20T14:13:37.889Z,8.07
2023-04-20T14:16:09.344Z,9.03
2023-04-20T14:18:37.727Z,8.83
2023-04-20T14:21:07.680Z,8.53
2023-04-20T14:23:35.969Z,8.23
2023-04-20T14:26:05.521Z,9.40
2023-04-20T14:28:33.904Z,9.13
2023-04-20T14:31:03.119Z,6.90
2023-04-20T14:33:31.450Z,6.23
2023-04-20T14:35:59.694Z,6.50
2023-04-20T14:38:29.370Z,6.00
2023-04-20T14:40:57.574Z,6.13
2023-04-20T14:43:25.910Z,7.17
2023-04-20T14:45:55.336Z,6.57
2023-04-20T14:48:24.289Z,6.00
2023-04-20T14:50:52.737Z,6.30
2023-04-20T14:53:21.857Z,6.77
2023-04-20T14:55:52.271Z,6.70
2023-04-20T14:58:21.156Z,8.33
2023-04-20T15:00:50.028Z,8.20
2023-04-20T15:03:19.142Z,7.13
2023-04-20T15:05:48.241Z,7.63
2023-04-20T15:08:16.505Z,9.27
2023-04-20T15:10:45.067Z,8.80
2023-04-20T15:13:14.655Z,8.63
2023-04-20T15:18:15.922Z,7.80
2023-04-20T15:20:44.143Z,8.10
2023-04-20T15:23:12.370Z,8.80
2023-04-20T15:25:40.674Z,7.90
2023-04-20T15:28:08.839Z,8.50
2023-04-20T15:30:38.504Z,9.30
2023-04-20T15:33:06.746Z,9.20
2023-04-20T15:35:35.924Z,9.90
2023-04-20T15:38:04.476Z,9.87
2023-04-20T15:40:32.939Z,8.73
2023-04-20T15:43:02.845Z,11.10
2023-04-20T15:45:31.788Z,13.03
2023-04-20T15:48:02.063Z,10.67
2023-04-20T15:50:30.360Z,10.10
2023-04-20T15:52:58.521Z,9.70
2023-04-20T15:55:27.013Z,9.67
2023-04-20T15:57:58.091Z,8.77
2023-04-20T16:00:26.425Z,9.50
2023-04-20T16:02:54.977Z,10.10
2023-04-20T16:05:43.122Z,13.23
2023-04-20T16:08:18.957Z,11.03
2023-04-20T16:10:47.159Z,11.90
2023-04-20T16:13:15.366Z,10.17
2023-04-20T16:15:43.688Z,11.30
2023-04-20T16:18:11.876Z,8.70
2023-04-20T16:20:41.438Z,8.47
2023-04-20T16:23:11.198Z,7.87
2023-04-20T16:25:39.706Z,8.60
2023-04-20T16:28:08.694Z,9.50
2023-04-20T16:30:37.453Z,10.40
2023-04-20T16:33:06.008Z,10.63
2023-04-20T16:35:34.267Z,8.67
2023-04-20T16:38:02.393Z,8.30
2023-04-20T16:40:32.058Z,9.47
2023-04-20T16:43:01.797Z,9.50
2023-04-20T16:45:30.111Z,9.53
2023-04-20T16:47:59.099Z,9.07
2023-04-20T16:50:27.609Z,12.37
2023-04-20T16:52:55.762Z,9.45
2023-04-20T16:55:25.824Z,8.70
2023-04-20T16:57:59.829Z,11.53
2023-04-20T17:00:28.703Z,11.07
2023-04-20T17:02:57.122Z,11.83
2023-04-20T17:05:25.912Z,10.85
2023-04-20T17:07:54.262Z,12.38
2023-04-20T17:10:23.280Z,9.10
2023-04-20T17:12:51.665Z,10.82
2023-04-20T17:15:21.497Z,11.50
2023-04-20T17:17:49.717Z,10.25
2023-04-20T17:20:17.956Z,10.15
2023-04-20T17:22:46.653Z,11.15
2023-04-20T17:25:15.105Z,18.65
2023-04-20T17:27:43.512Z,15.35
2023-04-20T17:30:12.895Z,22.00
2023-04-20T17:32:42.582Z,25.70
2023-04-20T17:35:11.205Z,17.55
2023-04-20T17:37:39.499Z,18.45
2023-04-20T17:40:09.291Z,12.57
2023-04-20T17:42:37.592Z,13.52
2023-04-20T17:45:07.201Z,12.70
2023-04-20T17:47:35.580Z,13.57
2023-04-20T17:50:06.138Z,15.73
2023-04-20T17:52:34.421Z,17.00
2023-04-20T17:55:02.901Z,15.43
2023-04-20T17:57:31.511Z,17.23
2023-04-20T17:59:59.742Z,18.98
2023-04-20T18:02:28.103Z,20.88
2023-04-20T18:04:59.776Z,14.07
2023-04-20T18:07:29.473Z,18.88
2023-04-20T18:09:57.696Z,22.48
2023-04-20T18:12:26.191Z,22.30
2023-04-20T18:14:54.384Z,24.67
2023-04-20T18:17:22.876Z,31.00
2023-04-20T18:19:51.421Z,36.88
2023-04-20T18:22:19.613Z,35.67
2023-04-20T18:24:49.337Z,30.88
2023-04-20T18:27:18.038Z,30.30
2023-04-20T18:29:46.413Z,26.58
2023-04-20T18:32:16.465Z,25.40
2023-04-20T18:34:45.019Z,21.27
2023-04-20T18:37:14.143Z,20.02
2023-04-20T18:39:42.350Z,20.42
2023-04-20T18:42:12.068Z,14.98
2023-04-20T18:44:40.678Z,13.00
2023-04-20T18:47:09.236Z,16.65
2023-04-20T18:49:37.581Z,15.43
2023-04-20T18:52:05.986Z,16.58
2023-04-20T18:54:35.616Z,16.15
2023-04-20T18:57:03.702Z,16.90
2023-04-20T18:59:33.415Z,18.15
2023-04-20T19:02:01.662Z,19.73
2023-04-20T19:04:30.773Z,20.83
2023-04-20T19:06:58.974Z,19.38
2023-04-20T19:09:27.287Z,20.73
2023-04-20T19:11:55.464Z,19.38
2023-04-20T19:14:23.690Z,22.92
2023-04-20T19:16:53.367Z,23.98
2023-04-20T19:19:21.752Z,21.63
2023-04-20T19:21:49.982Z,23.52
2023-04-20T19:24:18.399Z,20.73
2023-04-20T19:26:46.811Z,23.38
2023-04-20T19:29:14.987Z,21.50
2023-04-20T19:31:43.643Z,18.42
2023-04-20T19:34:13.540Z,18.83
2023-04-20T19:36:42.210Z,20.25
2023-04-20T19:39:11.112Z,18.05
2023-04-20T19:41:39.332Z,18.95
2023-04-20T19:44:09.877Z,15.48
2023-04-20T19:46:38.649Z,15.93
2023-04-20T19:49:07.033Z,15.30
2023-04-20T19:51:36.631Z,14.20
2023-04-20T19:54:05.665Z,12.77
2023-04-20T19:56:34.525Z,13.05
2023-04-20T19:59:02.778Z,12.27
2023-04-20T20:01:31.004Z,11.93
2023-04-20T20:03:59.579Z,13.43
2023-04-20T20:06:28.471Z,12.15
2023-04-20T20:08:58.197Z,12.20
2023-04-20T20:11:26.476Z,11.93
2023-04-20T20:13:54.817Z,11.60
2023-04-20T20:16:23.090Z,11.48
2023-04-20T20:18:51.470Z,10.63
2023-04-20T20:21:19.721Z,10.60
2023-04-20T20:23:47.877Z,11.10
2023-04-20T20:26:17.452Z,11.45
2023-04-20T20:28:45.738Z,11.75
2023-04-20T20:31:14.045Z,12.63
2023-04-20T20:33:42.904Z,12.55
2023-04-20T20:36:11.082Z,11.98
2023-04-20T20:38:40.746Z,12.30
2023-04-20T20:41:09.324Z,12.07
2023-04-20T20:43:41.770Z,13.80
2023-04-20T20:46:10.116Z,11.80
2023-04-20T20:48:38.590Z,12.05
2023-04-20T20:51:06.695Z,12.20
2023-04-20T20:53:34.867Z,11.70
2023-04-20T20:56:03.218Z,12.40
2023-04-20T20:58:31.416Z,11.95
2023-04-20T21:01:01.086Z,11.43
2023-04-20T21:03:30.363Z,10.85
2023-04-20T21:05:58.816Z,11.55
2023-04-20T21:08:26.962Z,12.80
2023-04-20T21:10:55.392Z,13.13
2023-04-20T21:13:23.607Z,12.40
2023-04-20T21:15:51.728Z,11.82
2023-04-20T21:18:21.296Z,12.80
2023-04-20T21:20:49.586Z,10.93
2023-04-20T21:23:17.742Z,11.07
2023-04-20T21:25:46.042Z,10.85
2023-04-20T21:28:14.193Z,10.18
2023-04-20T21:30:42.307Z,11.60
2023-04-20T21:33:10.491Z,11.85
2023-04-20T21:35:39.996Z,11.52
2023-04-20T21:38:08.120Z,10.57
2023-04-20T21:40:36.297Z,11.70
2023-04-20T21:43:04.446Z,10.80
2023-04-20T21:45:32.684Z,10.43
2023-04-20T21:48:00.931Z,11.65
2023-04-20T21:50:29.214Z,10.07
2023-04-20T21:52:58.741Z,11.68
2023-04-20T21:55:26.907Z,9.55
2023-04-20T21:57:55.131Z,10.23
2023-04-20T22:00:23.474Z,10.45
2023-04-20T22:02:51.820Z,11.80
2023-04-20T22:05:20.268Z,10.20
2023-04-20T22:07:48.391Z,11.07
2023-04-20T22:10:18.061Z,10.70
2023-04-20T22:12:46.275Z,11.85
2023-04-20T22:15:15.444Z,10.50
2023-04-20T22:17:46.372Z,10.85
2023-04-20T22:20:16.749Z,10.75
2023-04-20T22:22:45.085Z,11.65
2023-04-20T22:25:13.251Z,11.23
2023-04-20T22:27:42.801Z,10.38
2023-04-20T22:30:11.690Z,9.68
2023-04-20T22:32:39.888Z,10.90
2023-04-20T22:35:09.430Z,10.32
2023-04-20T22:37:37.587Z,10.10
2023-04-20T22:40:07.852Z,10.18
2023-04-20T22:42:36.103Z,10.25
2023-04-20T22:45:06.774Z,10.60
2023-04-20T22:47:35.058Z,10.32
2023-04-20T22:50:03.354Z,11.52
2023-04-20T22:52:32.006Z,11.68
2023-04-20T22:55:01.058Z,10.57
2023-04-20T22:57:29.245Z,10.40
2023-04-20T22:59:57.515Z,11.68
2023-04-20T23:02:27.148Z,11.05
2023-04-20T23:04:55.879Z,11.32
2023-04-20T23:07:24.158Z,10.90
2023-04-20T23:09:53.784Z,10.57
2023-04-20T23:12:21.942Z,11.80
2023-04-20T23:14:50.878Z,11.95
2023-04-20T23:17:19.141Z,11.55
2023-04-20T23:19:48.819Z,11.20
2023-04-20T23:22:16.994Z,11.68
2023-04-20T23:24:45.184Z,12.10
2023-04-20T23:27:13.352Z,12.18
2023-04-20T23:29:41.673Z,12.57
2023-04-20T23:32:09.935Z,12.45
2023-04-20T23:34:38.200Z,13.10
2023-04-20T23:37:07.753Z,12.50
2023-04-20T23:39:37.826Z,13.07
2023-04-20T23:42:06.181Z,11.85
2023-04-20T23:44:34.448Z,12.27
2023-04-20T23:47:02.652Z,12.70
2023-04-20T23:49:30.834Z,13.60
2023-04-20T23:51:59.121Z,13.38
2023-04-20T23:54:29.272Z,12.60
2023-04-20T23:56:57.983Z,12.95
2023-04-20T23:59:26.232Z,11.98
